Time;durP1;ratioP1;P1;durP2;ratioP2;P2;SDS_P1;SDS_P2;PMS_P1;PMS_P2;Temp;Humidity;BMP_temperature;BMP_pressure;BME280_temperature;BME280_humidity;BME280_pressure;Samples;Min_cycle;Max_cycle;Signal;HPM_P1;HPM_P2
2021/03/30 00:02:20;818705.00;2.73;1413.77;121754.00;0.41;211.11;;;;;15.70;1.00;;;;;;2271954;61;1365;-87
2021/03/30 00:04:47;850825.00;2.84;1469.91;81240.00;0.27;141.18;;;;;15.80;1.00;;;;;;2272179;61;1722;-87
2021/03/30 00:07:13;634668.00;2.12;1094.12;85771.00;0.29;149.00;;;;;15.80;1.00;;;;;;2272067;61;2001;-88
2021/03/30 00:09:40;464433.00;1.55;800.61;85140.00;0.28;147.92;;;;;15.30;1.00;;;;;;2272049;61;1203;-87
2021/03/30 00:12:07;571192.00;1.90;984.50;81636.00;0.27;141.86;;;;;15.00;1.00;;;;;;2272452;61;1249;-87
2021/03/30 00:14:34;478093.00;1.59;824.12;87252.00;0.29;151.56;;;;;14.70;1.00;;;;;;2272851;61;1164;-87
2021/03/30 00:17:01;561609.00;1.87;967.98;90729.00;0.30;157.57;;;;;14.40;1.00;;;;;;2272553;61;1106;-88
2021/03/30 00:19:27;653101.00;2.18;1126.00;116433.00;0.39;201.93;;;;;13.80;1.00;;;;;;2272282;61;1187;-88
2021/03/30 00:21:53;640238.00;2.13;1103.75;96968.00;0.32;168.34;;;;;13.40;1.00;;;;;;2271975;61;1269;-88
2021/03/30 00:24:20;514901.00;1.72;887.48;83472.00;0.28;145.03;;;;;13.10;1.00;;;;;;2271517;61;1617;-88
2021/03/30 00:26:46;417465.00;1.39;719.83;66729.00;0.22;116.11;;;;;12.80;1.00;;;;;;2271517;61;2002;-88
2021/03/30 00:29:13;381523.00;1.27;658.04;86155.00;0.29;149.67;;;;;12.40;1.00;;;;;;2271667;61;1070;-88
2021/03/30 00:31:40;544416.00;1.81;938.33;69112.00;0.23;120.23;;;;;12.10;1.00;;;;;;2271513;61;1715;-87
2021/03/30 00:34:06;640366.00;2.13;1103.97;83213.00;0.28;144.59;;;;;12.50;1.00;;;;;;2271707;61;1603;-87
2021/03/30 00:36:33;596665.00;1.99;1028.46;85456.00;0.28;148.46;;;;;12.80;1.00;;;;;;2271637;61;1065;-87
2021/03/30 00:38:59;116971856.00;389.91;64828880.00;78573.00;0.26;136.57;;;;;13.20;1.00;;;;;;2271816;61;880;-87
2021/03/30 00:41:26;495590.00;1.65;854.23;85054.00;0.28;147.77;;;;;13.40;1.00;;;;;;2271985;61;1251;-87
2021/03/30 00:43:52;480714.00;1.60;828.63;85453.00;0.28;148.46;;;;;13.70;1.00;;;;;;2271854;61;1737;-88
2021/03/30 00:46:20;579635.00;1.93;999.07;80307.00;0.27;139.57;;;;;14.00;1.00;;;;;;2271646;61;1919;-87
2021/03/30 00:48:49;723088.00;2.41;1247.30;119104.00;0.40;206.54;;;;;14.30;1.00;;;;;;2271664;61;1123;-87
2021/03/30 00:51:18;576625.00;1.92;993.88;110533.00;0.37;191.75;;;;;14.10;1.00;;;;;;2271520;61;1265;-87
2021/03/30 00:53:45;553067.00;1.84;953.25;82135.00;0.27;142.73;;;;;14.10;1.00;;;;;;2271531;61;1198;-87
2021/03/30 00:56:12;478673.00;1.60;825.11;82817.00;0.28;143.90;;;;;14.40;1.00;;;;;;2272257;61;1126;-87
2021/03/30 00:58:39;117150720.00;390.50;65126992.00;74098.00;0.25;128.84;;;;;14.80;1.00;;;;;;2272724;61;1097;-87
2021/03/30 01:01:05;483682.00;1.61;833.73;77991.00;0.26;135.57;;;;;15.10;1.00;;;;;;2271633;61;1261;-88
2021/03/30 01:03:32;362992.00;1.21;626.19;77967.00;0.26;135.53;;;;;15.20;1.00;;;;;;2271909;61;1147;-87
2021/03/30 01:05:59;365489.00;1.22;630.48;75699.00;0.25;131.61;;;;;15.10;1.00;;;;;;2271616;61;1981;-87
2021/03/30 01:08:45;492376.00;1.64;848.70;83715.00;0.28;145.45;;;;;15.00;1.00;;;;;;2272216;61;1176;-87
2021/03/30 01:11:28;704106.00;2.35;1214.36;91175.00;0.30;158.34;;;;;15.10;1.00;;;;;;2272000;61;1409;-87
2021/03/30 01:14:08;1185326.00;3.95;2063.71;300525.00;1.00;518.82;;;;;15.40;1.00;;;;;;2272856;61;1140;-87
2021/03/30 01:16:40;588546.00;1.96;1014.45;74615.00;0.25;129.73;;;;;15.60;1.00;;;;;;2272687;61;1601;-87
2021/03/30 01:19:23;402428.00;1.34;693.98;78470.00;0.26;136.39;;;;;15.80;1.00;;;;;;2272780;61;1037;-87
2021/03/30 01:22:12;501436.00;1.67;864.30;86511.00;0.29;150.28;;;;;15.70;1.00;;;;;;2272711;61;1375;-87
2021/03/30 01:24:47;462784.00;1.54;797.77;92407.00;0.31;160.46;;;;;15.40;1.00;;;;;;2272558;61;1072;-87
2021/03/30 01:27:32;279180.00;0.93;482.13;0.00;0.00;0.62;;;;;15.10;1.00;;;;;;2272246;61;1947;-87
2021/03/30 01:30:02;457788.00;1.53;789.18;85811.00;0.29;149.07;;;;;14.70;1.00;;;;;;2271976;61;1099;-87
2021/03/30 01:32:35;249806.00;0.83;431.62;0.00;0.00;0.62;;;;;14.30;1.00;;;;;;2271704;61;1658;-87
2021/03/30 01:35:04;471424.00;1.57;812.64;82663.00;0.28;143.64;;;;;14.20;1.00;;;;;;2272009;61;1069;-87
2021/03/30 01:37:36;422169.00;1.41;727.92;18026.00;0.06;31.85;;;;;14.60;1.00;;;;;;2272227;61;1168;-87
2021/03/30 01:40:06;409558.00;1.37;706.24;71316.00;0.24;124.03;;;;;15.00;1.00;;;;;;2272667;61;1058;-87
2021/03/30 01:42:33;338727.00;1.13;584.49;86575.00;0.29;150.39;;;;;15.30;1.00;;;;;;2272510;61;1097;-87
2021/03/30 01:45:02;388404.00;1.29;669.87;81800.00;0.27;142.15;;;;;15.60;1.00;;;;;;2271863;61;875;-87
2021/03/30 01:47:29;441208.00;1.47;760.66;94451.00;0.31;163.99;;;;;15.60;1.00;;;;;;2272245;61;1111;-87
2021/03/30 01:49:57;393038.00;1.31;677.84;65429.00;0.22;113.86;;;;;15.60;1.00;;;;;;2272318;61;1152;-87
2021/03/30 01:52:24;384569.00;1.28;663.28;72920.00;0.24;126.81;;;;;15.70;1.00;;;;;;2272019;61;1407;-87
2021/03/30 01:54:52;414094.00;1.38;714.04;88274.00;0.29;153.33;;;;;15.50;1.00;;;;;;2271925;61;1078;-87
2021/03/30 01:57:31;411694.00;1.37;709.91;98917.00;0.33;171.70;;;;;15.60;1.00;;;;;;2271707;61;1637;-87
2021/03/30 02:00:00;466830.00;1.56;804.74;84460.00;0.28;146.74;;;;;15.50;1.00;;;;;;2271659;61;1163;-88
2021/03/30 02:02:28;424598.00;1.42;732.10;70505.00;0.24;122.63;;;;;15.60;1.00;;;;;;2271288;61;1276;-88
2021/03/30 02:04:56;427142.00;1.42;736.47;78029.00;0.26;135.63;;;;;15.70;1.00;;;;;;2271193;61;1791;-87
2021/03/30 02:07:24;422665.00;1.41;728.77;71369.00;0.24;124.13;;;;;15.80;1.00;;;;;;2271344;61;2013;-88
2021/03/30 02:09:56;467903.00;1.56;806.58;75953.00;0.25;132.05;;;;;15.20;1.00;;;;;;2270505;61;1120;-87
2021/03/30 02:12:29;531512.00;1.77;916.10;81350.00;0.27;141.37;;;;;14.50;1.00;;;;;;2271094;61;1478;-87
2021/03/30 02:14:56;462242.00;1.54;796.84;87536.00;0.29;152.05;;;;;14.30;1.00;;;;;;2271347;61;1183;-87
2021/03/30 02:17:29;515091.00;1.72;887.81;74376.00;0.25;129.32;;;;;14.60;1.00;;;;;;2271110;61;1195;-87
2021/03/30 02:20:05;681889.00;2.27;1175.85;86301.00;0.29;149.92;;;;;14.80;1.00;;;;;;2272114;61;1155;-87
2021/03/30 02:22:35;813413.00;2.71;1404.53;80058.00;0.27;139.14;;;;;15.20;1.00;;;;;;2272472;61;1453;-87
2021/03/30 02:25:04;730881.00;2.44;1260.83;79841.00;0.27;138.76;;;;;15.20;1.00;;;;;;2272589;61;1124;-87
2021/03/30 02:27:36;709932.00;2.37;1224.47;92691.00;0.31;160.95;;;;;14.80;1.00;;;;;;2271839;61;1940;-87
2021/03/30 02:30:03;687846.00;2.29;1186.17;84240.00;0.28;146.36;;;;;14.10;1.00;;;;;;2271885;61;1308;-87
2021/03/30 02:32:33;968426.00;3.23;1676.63;82384.00;0.27;143.16;;;;;13.30;1.00;;;;;;2271226;61;1648;-87
2021/03/30 02:35:03;1024530.00;3.42;1775.97;180168.00;0.60;311.78;;;;;12.90;1.00;;;;;;2271064;61;1187;-87
2021/03/30 02:37:30;1047101.00;3.49;1816.07;133707.00;0.45;231.72;;;;;12.50;1.00;;;;;;2270861;61;1077;-87
2021/03/30 02:39:59;940490.00;3.13;1627.35;120395.00;0.40;208.76;;;;;12.30;1.00;;;;;;2270905;61;1220;-87
2021/03/30 02:42:26;710863.00;2.37;1226.08;0.00;0.00;0.62;;;;;12.10;1.00;;;;;;2270752;61;1241;-87
2021/03/30 02:44:56;915887.00;3.05;1584.04;90963.00;0.30;157.97;;;;;12.20;1.00;;;;;;2270422;61;1132;-87
2021/03/30 02:47:25;678675.00;2.26;1170.28;77951.00;0.26;135.50;;;;;12.20;1.00;;;;;;2270928;61;1939;-87
2021/03/30 02:49:53;670866.00;2.24;1156.75;81703.00;0.27;141.98;;;;;12.50;1.00;;;;;;2272395;61;1219;-86
2021/03/30 02:52:24;753082.00;2.51;1299.42;96509.00;0.32;167.55;;;;;12.70;1.00;;;;;;2270788;61;1249;-87
2021/03/30 02:54:51;913028.00;3.04;1579.01;88443.00;0.29;153.62;;;;;12.70;1.00;;;;;;2270502;61;1211;-87
2021/03/30 02:57:18;1029758.00;3.43;1785.25;132694.00;0.44;229.97;;;;;12.50;1.00;;;;;;2270824;61;1321;-87
2021/03/30 02:59:47;983002.00;3.28;1702.39;81934.00;0.27;142.38;;;;;12.70;1.00;;;;;;2270358;61;1632;-87
2021/03/30 03:02:13;688265.00;2.29;1186.89;90306.00;0.30;156.84;;;;;13.00;1.00;;;;;;2270124;61;1333;-87
2021/03/30 03:04:40;525451.00;1.75;905.65;99904.00;0.33;173.41;;;;;13.50;1.00;;;;;;2271852;61;1100;-87
2021/03/30 03:07:08;446057.00;1.49;769.00;86730.00;0.29;150.66;;;;;14.00;1.00;;;;;;2271232;61;2013;-87
2021/03/30 03:09:37;348527.00;1.16;601.33;84616.00;0.28;147.01;;;;;14.30;1.00;;;;;;2270291;61;1120;-87
2021/03/30 03:12:05;367236.00;1.22;633.49;84482.00;0.28;146.78;;;;;14.70;1.00;;;;;;2270207;61;1318;-87
2021/03/30 03:14:34;503237.00;1.68;867.40;80907.00;0.27;140.60;;;;;14.70;1.00;;;;;;2271345;61;1266;-87
2021/03/30 03:17:02;550977.00;1.84;949.64;84567.00;0.28;146.93;;;;;14.80;1.00;;;;;;2270792;61;1127;-87
2021/03/30 03:19:29;497136.00;1.66;856.89;84784.00;0.28;147.30;;;;;15.00;1.00;;;;;;2270324;61;1058;-87
2021/03/30 03:21:56;471849.00;1.57;813.37;98284.00;0.33;170.61;;;;;15.20;1.00;;;;;;2270277;61;1368;-87
2021/03/30 03:24:23;382500.00;1.27;659.72;88464.00;0.29;153.66;;;;;15.40;1.00;;;;;;2270210;61;1148;-87
2021/03/30 03:26:50;290734.00;0.97;501.99;103851.00;0.35;180.22;;;;;15.20;1.00;;;;;;2270142;61;2022;-87
2021/03/30 03:29:19;507354.00;1.69;874.49;79205.00;0.26;137.66;;;;;14.90;1.00;;;;;;2270367;61;1156;-87
2021/03/30 03:31:48;528282.00;1.76;910.53;115588.00;0.39;200.47;;;;;14.70;1.00;;;;;;2270230;61;1240;-87
2021/03/30 03:34:15;415683.00;1.39;716.77;85267.00;0.28;148.13;;;;;14.90;1.00;;;;;;2270187;61;1118;-87
2021/03/30 03:36:43;370214.00;1.23;638.60;92074.00;0.31;159.89;;;;;15.10;1.00;;;;;;2269945;61;1126;-87
2021/03/30 03:39:13;641563.00;2.14;1106.04;88117.00;0.29;153.06;;;;;15.30;1.00;;;;;;2270068;61;1145;-87
2021/03/30 03:41:42;593564.00;1.98;1023.11;80454.00;0.27;139.82;;;;;15.50;1.00;;;;;;2270591;61;1359;-87
2021/03/30 03:44:10;633791.00;2.11;1092.60;83290.00;0.28;144.72;;;;;15.40;1.00;;;;;;2270715;61;1178;-87
2021/03/30 03:46:36;665470.00;2.22;1147.41;97692.00;0.33;169.59;;;;;15.20;1.00;;;;;;2270742;61;2016;-87
2021/03/30 03:49:04;524062.00;1.75;903.26;89867.00;0.30;156.08;;;;;14.80;1.00;;;;;;2271209;61;1357;-87
2021/03/30 03:51:36;600996.00;2.00;1035.94;80429.00;0.27;139.78;;;;;14.10;1.00;;;;;;2270876;61;1403;-87
2021/03/30 03:54:06;701908.00;2.34;1210.55;69779.00;0.23;121.38;;;;;13.60;1.00;;;;;;2271035;61;1574;-87
2021/03/30 03:56:37;827689.00;2.76;1429.46;94281.00;0.31;163.70;;;;;13.30;1.00;;;;;;2271189;61;1074;-87
2021/03/30 03:59:10;719372.00;2.40;1240.85;86676.00;0.29;150.57;;;;;13.20;1.00;;;;;;2270750;61;1191;-87
2021/03/30 04:01:44;601114.00;2.00;1036.14;0.00;0.00;0.62;;;;;13.10;1.00;;;;;;2270929;61;1447;-87
2021/03/30 04:04:23;810745.00;2.70;1399.87;0.00;0.00;0.62;;;;;12.90;1.00;;;;;;2270668;61;1103;-87
2021/03/30 04:06:56;457850.00;1.53;789.29;0.00;0.00;0.62;;;;;12.50;1.00;;;;;;2270656;61;1997;-87
2021/03/30 04:09:23;524331.00;1.75;903.73;0.00;0.00;0.62;;;;;12.70;1.00;;;;;;2270977;61;1103;-87
2021/03/30 04:11:51;750886.00;2.50;1295.60;14520.00;0.05;25.78;;;;;12.70;1.00;;;;;;2270351;61;1316;-88
2021/03/30 04:14:20;703534.00;2.35;1213.37;73008.00;0.24;126.96;;;;;12.80;1.00;;;;;;2270647;61;1053;-88
2021/03/30 04:16:48;655541.00;2.19;1130.22;90504.00;0.30;157.18;;;;;13.00;1.00;;;;;;2270292;61;1080;-88
2021/03/30 04:19:15;578768.00;1.93;997.57;0.00;0.00;0.62;;;;;13.40;1.00;;;;;;2270124;61;1071;-88
2021/03/30 04:21:42;972736.00;3.24;1684.24;93590.00;0.31;162.51;;;;;13.60;1.00;;;;;;2270720;61;1295;-88
2021/03/30 04:24:10;752876.00;2.51;1299.06;85076.00;0.28;147.80;;;;;13.70;1.00;;;;;;2270282;61;1703;-88
2021/03/30 04:26:36;750247.00;2.50;1294.49;82028.00;0.27;142.54;;;;;13.50;1.00;;;;;;2271273;61;1999;-88
2021/03/30 04:29:04;782148.00;2.61;1350.01;81291.00;0.27;141.27;;;;;13.10;1.00;;;;;;2271303;61;1157;-88
2021/03/30 04:31:31;882671.00;2.94;1525.70;84876.00;0.28;147.46;;;;;12.70;1.00;;;;;;2271029;61;1387;-87
2021/03/30 04:33:57;758943.00;2.53;1309.61;105144.00;0.35;182.45;;;;;12.30;1.00;;;;;;2271096;61;1072;-85
2021/03/30 04:36:24;1075973.00;3.59;1867.51;157336.00;0.52;272.45;;;;;12.10;1.00;;;;;;2271410;61;1195;-85
2021/03/30 04:38:51;741050.00;2.47;1278.50;94687.00;0.32;164.40;;;;;11.80;1.00;;;;;;2271661;61;1097;-85
2021/03/30 04:41:17;660075.00;2.20;1138.07;86116.00;0.29;149.60;;;;;11.70;1.00;;;;;;2271567;61;1387;-85
2021/03/30 04:43:44;825029.00;2.75;1424.81;146834.00;0.49;254.35;;;;;11.50;1.00;;;;;;2271626;61;1062;-85
2021/03/30 04:46:10;847125.00;2.82;1463.44;91172.00;0.30;158.33;;;;;11.20;1.00;;;;;;2271702;61;1919;-85
2021/03/30 04:48:39;779440.00;2.60;1345.29;88993.00;0.30;154.57;;;;;10.80;1.00;;;;;;2271982;61;1164;-86
2021/03/30 04:51:06;751783.00;2.51;1297.16;3996.00;0.01;7.55;;;;;11.00;1.00;;;;;;2271484;61;1382;-86
2021/03/30 04:53:34;520170.00;1.73;896.56;4365.00;0.01;8.19;;;;;11.40;1.00;;;;;;2272124;61;1184;-86
2021/03/30 04:56:01;808570.00;2.70;1396.07;24498.00;0.08;43.06;;;;;11.80;1.00;;;;;;2272187;61;1065;-85
2021/03/30 04:58:28;598163.00;1.99;1031.05;0.00;0.00;0.62;;;;;11.80;1.00;;;;;;2272150;61;1192;-86
2021/03/30 05:00:54;627885.00;2.09;1082.39;3693.00;0.01;7.02;;;;;11.70;1.00;;;;;;2271649;61;1289;-86
2021/03/30 05:03:20;521756.00;1.74;899.29;18101.00;0.06;31.98;;;;;12.00;1.00;;;;;;2271535;61;1145;-86
2021/03/30 05:05:48;604992.00;2.02;1042.84;0.00;0.00;0.62;;;;;12.20;1.00;;;;;;2271139;61;1998;-86
2021/03/30 05:08:14;597802.00;1.99;1030.42;0.00;0.00;0.62;;;;;12.20;1.00;;;;;;2271185;61;1326;-86
2021/03/30 05:10:41;576459.00;1.92;993.59;20656.00;0.07;36.41;;;;;12.40;1.00;;;;;;2271024;61;1388;-86
2021/03/30 05:13:07;563952.00;1.88;972.02;0.00;0.00;0.62;;;;;12.50;1.00;;;;;;2271008;61;1085;-86
2021/03/30 05:15:34;770160.00;2.57;1329.13;0.00;0.00;0.62;;;;;12.60;1.00;;;;;;2271354;61;1110;-87
2021/03/30 05:18:00;574977.00;1.92;991.03;0.00;0.00;0.62;;;;;12.30;1.00;;;;;;2271113;61;1085;-87
2021/03/30 05:20:26;564069.00;1.88;972.22;0.00;0.00;0.62;;;;;11.90;1.00;;;;;;2270845;61;1434;-86
2021/03/30 05:22:54;884405.00;2.95;1528.75;94817.00;0.32;164.62;;;;;12.20;1.00;;;;;;2271228;61;1196;-87
2021/03/30 05:25:20;523863.00;1.75;902.92;0.00;0.00;0.62;;;;;12.50;1.00;;;;;;2270554;61;1085;-86
2021/03/30 05:27:47;494637.00;1.65;852.59;0.00;0.00;0.62;;;;;12.90;1.00;;;;;;2270700;61;1916;-86
2021/03/30 05:30:14;464272.00;1.55;800.33;0.00;0.00;0.62;;;;;12.90;1.00;;;;;;2269957;61;1335;-85
2021/03/30 05:32:42;649160.00;2.16;1119.18;0.00;0.00;0.62;;;;;12.90;1.00;;;;;;2270413;61;1162;-86
2021/03/30 05:35:10;581573.00;1.94;1002.41;40549.00;0.14;70.84;;;;;13.10;1.00;;;;;;2272347;61;1114;-86
2021/03/30 05:37:37;419581.00;1.40;723.47;0.00;0.00;0.62;;;;;13.20;1.00;;;;;;2272764;61;1169;-86
2021/03/30 05:40:06;640063.00;2.13;1103.45;0.00;0.00;0.62;;;;;13.30;1.00;;;;;;2272601;61;1022;-86
2021/03/30 05:42:33;727790.00;2.43;1255.46;0.00;0.00;0.62;;;;;13.70;1.00;;;;;;2271111;61;1430;-87
2021/03/30 05:45:00;696405.00;2.32;1201.01;10565.00;0.04;18.93;;;;;14.10;1.00;;;;;;2270225;61;1122;-86
2021/03/30 05:47:27;601605.00;2.01;1036.99;0.00;0.00;0.62;;;;;14.50;1.00;;;;;;2269824;61;2009;-86
2021/03/30 05:49:54;360546.00;1.20;621.99;0.00;0.00;0.62;;;;;14.90;1.00;;;;;;2269538;61;1160;-87
2021/03/30 05:52:26;619335.00;2.06;1067.62;12930.00;0.04;23.03;;;;;15.10;1.00;;;;;;2268891;61;1373;-86
2021/03/30 05:54:55;474779.00;1.58;818.41;0.00;0.00;0.62;;;;;15.50;1.00;;;;;;2269638;61;1127;-86
2021/03/30 05:57:26;538788.00;1.80;928.63;0.00;0.00;0.62;;;;;16.00;1.00;;;;;;2270548;61;1191;-86
2021/03/30 05:59:55;393194.00;1.31;678.11;74688.00;0.25;129.86;;;;;16.20;1.00;;;;;;2271057;61;1165;-86
2021/03/30 06:02:24;596054.00;1.99;1027.41;0.00;0.00;0.62;;;;;16.20;1.00;;;;;;2271121;61;1395;-86
2021/03/30 06:04:51;608514.00;2.03;1048.92;84593.00;0.28;146.97;;;;;15.70;1.00;;;;;;2271201;61;1093;-86
2021/03/30 06:07:17;625328.00;2.08;1077.97;103031.00;0.34;178.80;;;;;15.80;1.00;;;;;;2270572;61;2006;-87
2021/03/30 06:09:46;914448.00;3.05;1581.51;191047.00;0.64;330.51;;;;;16.00;1.00;;;;;;2271531;61;1118;-86
2021/03/30 06:12:14;611012.00;2.04;1053.24;83442.00;0.28;144.98;;;;;16.60;1.00;;;;;;2270407;61;1542;-86
2021/03/30 06:14:44;614175.00;2.05;1058.70;81793.00;0.27;142.13;;;;;17.10;1.00;;;;;;2268426;61;1084;-86
2021/03/30 06:17:13;680157.00;2.27;1172.85;97050.00;0.32;168.48;;;;;17.50;1.00;;;;;;2270484;61;1168;-86
2021/03/30 06:19:54;378828.00;1.26;653.41;78540.00;0.26;136.52;;;;;18.20;1.00;;;;;;2269072;61;1141;-86
2021/03/30 06:22:22;332972.00;1.11;574.59;0.00;0.00;0.62;;;;;19.10;1.00;;;;;;2269038;61;1359;-86
2021/03/30 06:24:48;378652.00;1.26;653.11;12976.00;0.04;23.10;;;;;19.10;1.00;;;;;;2268805;61;1289;-86
2021/03/30 06:27:23;405285.00;1.35;698.89;100601.00;0.34;174.61;;;;;19.40;1.00;;;;;;2267832;61;1916;-86
2021/03/30 06:29:52;372766.00;1.24;642.99;79732.00;0.27;138.57;;;;;20.00;1.00;;;;;;2268892;61;1181;-86
2021/03/30 06:32:21;281567.00;0.94;486.23;60951.00;0.20;106.12;;;;;20.10;1.00;;;;;;2269769;61;1265;-86
2021/03/30 06:34:51;225013.00;0.75;388.97;0.00;0.00;0.62;;;;;20.30;1.00;;;;;;2269394;61;1186;-86
2021/03/30 06:37:38;147662.00;0.49;255.78;0.00;0.00;0.62;;;;;20.00;1.00;;;;;;2269083;61;1707;-86
2021/03/30 06:40:18;295381.00;0.98;509.98;81806.00;0.27;142.16;;;;;19.40;1.00;;;;;;2269055;61;1768;-87
2021/03/30 06:42:47;514312.00;1.71;886.47;76751.00;0.26;133.42;;;;;19.70;1.00;;;;;;2269798;61;1112;-87
2021/03/30 06:45:18;496068.00;1.65;855.05;76107.00;0.25;132.31;;;;;19.70;1.00;;;;;;2271250;61;1099;-87
2021/03/30 06:47:47;252857.00;0.84;436.86;94876.00;0.32;164.73;;;;;20.30;1.00;;;;;;2264339;61;2030;-87
2021/03/30 06:50:28;207706.00;0.69;359.19;83818.00;0.28;145.63;;;;;20.60;1.00;;;;;;2270805;61;1612;-87
2021/03/30 06:52:56;324745.00;1.08;560.45;141790.00;0.47;245.66;;;;;20.30;1.00;;;;;;2271286;61;1156;-87
2021/03/30 06:55:28;246185.00;0.82;425.39;85418.00;0.28;148.40;;;;;20.20;1.00;;;;;;2271292;61;1101;-87
2021/03/30 06:58:00;301847.00;1.01;521.09;82095.00;0.27;142.66;;;;;19.60;1.00;;;;;;2271769;61;1080;-85
2021/03/30 07:00:32;260846.00;0.87;450.60;81264.00;0.27;141.22;;;;;19.60;1.00;;;;;;2271868;61;1384;-87
2021/03/30 07:03:00;226275.00;0.75;391.14;81467.00;0.27;141.57;;;;;20.40;1.00;;;;;;2271449;61;1044;-88
2021/03/30 07:05:30;307652.00;1.03;531.07;83574.00;0.28;145.21;;;;;20.90;1.00;;;;;;2271273;61;1140;-88
2021/03/30 07:07:58;223653.00;0.75;386.63;79431.00;0.26;138.05;;;;;21.40;1.00;;;;;;2271269;61;2017;-87
2021/03/30 07:10:25;184031.00;0.61;318.43;79306.00;0.26;137.84;;;;;21.70;1.00;;;;;;2271773;61;1327;-88
2021/03/30 07:12:53;210475.00;0.70;363.95;74780.00;0.25;130.02;;;;;22.60;1.00;;;;;;2270888;61;1044;-88
2021/03/30 07:15:21;240234.00;0.80;415.15;80870.00;0.27;140.54;;;;;23.20;1.00;;;;;;2271112;61;1059;-88
2021/03/30 07:18:00;391603.00;1.31;675.37;124771.00;0.42;216.31;;;;;23.10;1.00;;;;;;2269611;61;1154;-88
2021/03/30 07:20:29;254689.00;0.85;440.02;80570.00;0.27;140.02;;;;;23.40;1.00;;;;;;2270331;61;1364;-88
2021/03/30 07:22:58;417207.00;1.39;719.39;78985.00;0.26;137.28;;;;;22.70;1.00;;;;;;2269559;61;1091;-88
2021/03/30 07:25:27;214544.00;0.72;370.96;81409.00;0.27;141.47;;;;;22.70;1.00;;;;;;2269404;61;1129;-88
2021/03/30 07:28:03;345405.00;1.15;595.96;76264.00;0.25;132.58;;;;;23.20;1.00;;;;;;2270570;61;2038;-87
2021/03/30 07:30:30;295055.00;0.98;509.42;84986.00;0.28;147.65;;;;;22.40;1.00;;;;;;2270176;61;1493;-88
2021/03/30 07:33:15;296225.00;0.99;511.43;83621.00;0.28;145.29;;;;;22.50;1.00;;;;;;2270213;61;1568;-88
2021/03/30 07:35:42;884635.00;2.95;1529.15;134197.00;0.45;232.57;;;;;22.60;1.00;;;;;;2270007;61;1121;-88
2021/03/30 07:38:13;319064.00;1.06;550.69;59369.00;0.20;103.39;;;;;22.80;1.00;;;;;;2269202;61;1160;-88
2021/03/30 07:40:41;504487.00;1.68;869.55;92372.00;0.31;160.40;;;;;23.30;1.00;;;;;;2269725;61;1436;-87
2021/03/30 07:43:11;118491280.00;394.97;67390480.00;80915.00;0.27;140.62;;;;;23.50;1.00;;;;;;2269555;61;1575;-87
2021/03/30 07:45:41;247125.00;0.82;427.01;77807.00;0.26;135.25;;;;;23.50;1.00;;;;;;2270901;61;1044;-87
2021/03/30 07:48:13;387533.00;1.29;668.37;78325.00;0.26;136.14;;;;;23.20;1.00;;;;;;2271100;61;1078;-87
2021/03/30 07:50:59;1044061.00;3.48;1810.67;271840.00;0.91;469.51;;;;;23.50;1.00;;;;;;2271211;61;1463;-87
2021/03/30 07:53:40;362001.00;1.21;624.49;0.00;0.00;0.62;;;;;23.50;1.00;;;;;;2270353;61;1277;-87
2021/03/30 07:56:08;393968.00;1.31;679.44;0.00;0.00;0.62;;;;;23.50;1.00;;;;;;2269874;61;1773;-87
2021/03/30 07:58:40;162064.00;0.54;280.60;0.00;0.00;0.62;;;;;23.70;1.00;;;;;;2256468;61;1107;-87
2021/03/30 08:01:08;266372.00;0.89;460.11;82210.00;0.27;142.85;;;;;23.20;1.00;;;;;;2256480;61;1361;-87
2021/03/30 08:03:38;132671.00;0.44;229.94;0.00;0.00;0.62;;;;;22.50;1.00;;;;;;2258325;61;1043;-88
2021/03/30 08:06:16;120278760.00;400.93;70489408.00;0.00;0.00;0.62;;;;;21.80;1.00;;;;;;2251879;61;1918;-87
2021/03/30 08:09:12;599854.00;2.00;1033.97;93809.00;0.31;162.88;;;;;22.00;1.00;;;;;;2256871;61;1172;-87
2021/03/30 08:11:52;126466.00;0.42;219.23;0.00;0.00;0.62;;;;;22.60;1.00;;;;;;2234977;62;1346;-87
2021/03/30 08:14:41;112984.00;0.38;195.98;0.00;0.00;0.62;;;;;22.70;1.00;;;;;;2236403;62;1021;-87
2021/03/30 08:17:14;100973.00;0.34;175.25;0.00;0.00;0.62;;;;;21.70;1.00;;;;;;2238365;62;1147;-87
2021/03/30 08:20:06;455034.00;1.52;784.44;0.00;0.00;0.62;;;;;21.40;1.00;;;;;;2244721;62;1134;-87
2021/03/30 08:23:03;350135.00;1.17;604.09;79693.00;0.27;138.51;;;;;20.50;1.00;;;;;;2245028;62;1428;-88
2021/03/30 08:25:37;361570.00;1.21;623.75;0.00;0.00;0.62;;;;;21.30;1.00;;;;;;2245057;62;1200;-87
2021/03/30 08:28:04;317855.00;1.06;548.61;0.00;0.00;0.62;;;;;22.00;1.00;;;;;;2245103;62;2011;-87
2021/03/30 08:30:56;91044.00;0.30;158.11;0.00;0.00;0.62;;;;;21.80;1.00;;;;;;2251587;61;1380;-87
2021/03/30 08:33:32;522079.00;1.74;899.85;76793.00;0.26;133.50;;;;;22.20;1.00;;;;;;2253918;61;1133;-87
2021/03/30 08:36:21;340072.00;1.13;586.80;0.00;0.00;0.62;;;;;21.80;1.00;;;;;;2243851;61;1193;-87
2021/03/30 08:38:49;89248.00;0.30;155.01;0.00;0.00;0.62;;;;;21.70;1.00;;;;;;2254069;61;1148;-88
2021/03/30 08:41:53;65936.00;0.22;114.74;0.00;0.00;0.62;;;;;21.40;1.00;;;;;;2249232;61;1292;-87
2021/03/30 08:44:28;102336.00;0.34;177.60;0.00;0.00;0.62;;;;;21.70;1.00;;;;;;2248867;61;1609;-87
2021/03/30 08:46:56;281361.00;0.94;485.88;0.00;0.00;0.62;;;;;21.70;1.00;;;;;;2249318;61;1973;-87
2021/03/30 08:49:26;207891.00;0.69;359.51;0.00;0.00;0.62;;;;;21.20;1.00;;;;;;2263526;61;1716;-88
2021/03/30 08:51:53;392339.00;1.31;676.64;3329.00;0.01;6.39;;;;;21.10;1.00;;;;;;2265497;61;1424;-88
2021/03/30 08:54:24;330002.00;1.10;569.49;0.00;0.00;0.62;;;;;21.10;1.00;;;;;;2256582;61;1265;-88
2021/03/30 08:56:51;330991.00;1.10;571.19;0.00;0.00;0.62;;;;;21.20;1.00;;;;;;2266893;61;1127;-88
2021/03/30 08:59:20;328920.00;1.10;567.63;0.00;0.00;0.62;;;;;21.40;1.00;;;;;;2270077;61;1132;-89
2021/03/30 09:01:59;422043.00;1.41;727.70;0.00;0.00;0.62;;;;;20.80;1.00;;;;;;2272240;61;1432;-88
2021/03/30 09:04:29;631845.00;2.11;1089.24;26786.00;0.09;47.02;;;;;20.40;1.00;;;;;;2260245;61;1049;-88
2021/03/30 09:06:58;366677.00;1.22;632.53;0.00;0.00;0.62;;;;;20.10;1.00;;;;;;2271474;61;1923;-89
2021/03/30 09:09:27;478750.00;1.60;825.25;0.00;0.00;0.62;;;;;20.20;1.00;;;;;;2263678;61;1104;-86
2021/03/30 09:11:54;245002.00;0.82;423.35;0.00;0.00;0.62;;;;;20.10;1.00;;;;;;2270348;61;1344;-86
2021/03/30 09:14:22;335201.00;1.12;578.43;0.00;0.00;0.62;;;;;20.20;1.00;;;;;;2272335;61;1127;-87
2021/03/30 09:16:51;627672.00;2.09;1082.03;22706.00;0.08;39.96;;;;;20.10;1.00;;;;;;2272127;61;991;-86
2021/03/30 09:19:25;329547.00;1.10;568.71;0.00;0.00;0.62;;;;;19.80;1.00;;;;;;2271483;61;1133;-87
2021/03/30 09:22:01;370629.00;1.24;639.32;0.00;0.00;0.62;;;;;20.20;1.00;;;;;;2272398;61;1359;-88
2021/03/30 09:24:47;422971.00;1.41;729.30;0.00;0.00;0.62;;;;;19.40;1.00;;;;;;2262925;61;1018;-87
2021/03/30 09:27:19;165188.00;0.55;285.98;0.00;0.00;0.62;;;;;19.40;1.00;;;;;;2262910;61;1952;-87
2021/03/30 09:29:46;501026.00;1.67;863.59;124128.00;0.41;215.20;;;;;19.60;1.00;;;;;;2255301;61;970;-86
2021/03/30 09:32:13;524345.00;1.75;903.75;27519.00;0.09;48.29;;;;;19.50;1.00;;;;;;2247478;61;1461;-87
2021/03/30 09:34:39;552019.00;1.84;951.44;0.00;0.00;0.62;;;;;19.30;1.00;;;;;;2247403;61;1050;-87
2021/03/30 09:37:06;270146.00;0.90;466.59;40614.00;0.14;70.95;;;;;19.40;1.00;;;;;;2243428;62;967;-87
2021/03/30 09:39:37;298024.00;0.99;514.52;0.00;0.00;0.62;;;;;19.70;1.00;;;;;;2244192;61;1173;-88
2021/03/30 09:42:05;171533.00;0.57;296.91;0.00;0.00;0.62;;;;;19.40;1.00;;;;;;2246147;61;1454;-87
2021/03/30 09:44:42;396462.00;1.32;683.72;9224.00;0.03;16.60;;;;;19.50;1.00;;;;;;2255841;61;1141;-87